Time;durP1;ratioP1;P1;durP2;ratioP2;P2;SDS_P1;SDS_P2;PMS_P1;PMS_P2;Temp;Humidity;BMP_temperature;BMP_pressure;BME280_temperature;BME280_humidity;BME280_pressure;Samples;Min_cycle;Max_cycle;Signal;HPM_P1;HPM_P2
2022/03/29 00:01:44;;;;;;;12.98;9.50;;;11.00;56.80;;;10.47;59.54;100310.13;4977469;28;20054;-77
2022/03/29 00:04:11;;;;;;;11.25;9.55;;;10.90;57.30;;;10.49;60.21;100324.97;4975922;28;20046;-77
2022/03/29 00:06:38;;;;;;;14.07;9.82;;;10.90;57.50;;;10.36;61.38;100318.22;4990112;28;20042;-78
2022/03/29 00:09:05;;;;;;;13.80;8.60;;;10.80;58.10;;;10.35;62.20;100308.63;4988667;28;20039;-80
2022/03/29 00:12:27;;;;;;;14.35;9.50;;;10.80;58.60;;;10.42;61.67;100302.34;4982540;28;20042;-76
2022/03/29 00:16:06;;;;;;;12.00;9.20;;;10.80;58.70;;;10.32;62.27;100299.06;5009196;28;20411;-78
2022/03/29 00:18:33;;;;;;;11.55;8.80;;;10.70;59.50;;;10.29;63.21;100298.25;4975526;28;20293;-79
2022/03/29 00:21:00;;;;;;;13.48;9.52;;;10.70;60.00;;;10.33;65.36;100294.66;4972977;28;20053;-77
2022/03/29 00:23:27;;;;;;;11.82;9.57;;;11.00;60.60;;;10.28;67.30;100294.75;4972623;28;20515;-77
2022/03/29 00:25:54;;;;;;;14.43;10.10;;;10.60;61.50;;;10.23;69.43;100288.75;4972301;28;20666;-76
2022/03/29 00:28:21;;;;;;;17.58;11.27;;;10.60;62.50;;;10.15;71.15;100291.56;4978079;28;20054;-80
2022/03/29 00:30:50;;;;;;;14.93;10.57;;;10.60;63.60;;;10.30;72.33;100289.47;4970666;28;20109;-81
2022/03/29 00:33:17;;;;;;;15.50;9.73;;;10.60;65.60;;;10.30;73.85;100287.72;4996168;28;20034;-77
2022/03/29 00:35:45;;;;;;;13.60;10.02;;;11.40;67.30;;;10.40;68.10;100280.47;4993331;28;20046;-76
2022/03/29 00:38:12;;;;;;;15.43;9.95;;;10.60;65.70;;;10.33;67.90;100279.75;4976336;28;20057;-76
2022/03/29 00:40:39;;;;;;;14.68;10.05;;;10.60;65.00;;;10.36;67.36;100268.25;4959650;28;20687;-76
2022/03/29 00:43:08;;;;;;;12.88;9.43;;;10.60;65.30;;;10.29;67.92;100264.91;4975823;28;20062;-76
2022/03/29 00:45:36;;;;;;;14.77;9.80;;;10.60;65.50;;;10.26;70.10;100262.38;4976698;28;20155;-76
2022/03/29 00:48:08;;;;;;;14.10;9.30;;;11.40;66.40;;;10.22;71.79;100260.72;4991985;28;20579;-78
2022/03/29 00:50:37;;;;;;;16.23;9.80;;;10.60;66.70;;;10.21;72.18;100251.97;4976395;28;20056;-76
2022/03/29 00:53:05;;;;;;;13.98;10.38;;;11.10;67.90;;;10.15;73.50;100264.41;4975931;28;20047;-78
2022/03/29 00:55:32;;;;;;;13.52;9.50;;;10.50;68.00;;;9.96;79.70;100256.94;4991859;28;20038;-77
2022/03/29 00:58:03;;;;;;;11.75;8.80;;;10.50;69.70;;;9.92;76.04;100240.41;4978134;28;20586;-78
2022/03/29 01:00:31;;;;;;;;;;;10.70;69.70;;;9.92;76.85;100247.41;4980253;28;20108;-79
2022/03/29 01:03:02;;;;;;;11.48;8.93;;;10.40;69.80;;;9.82;77.37;100253.75;4995930;28;19925;-80
2022/03/29 01:05:32;;;;;;;13.25;8.65;;;10.30;70.70;;;9.81;79.99;100252.91;4995868;28;20069;-79
2022/03/29 01:08:03;;;;;;;12.45;8.55;;;11.30;72.30;;;9.73;79.15;100249.59;4994377;28;20113;-80
2022/03/29 01:10:30;;;;;;;12.80;8.77;;;10.20;72.60;;;9.69;78.68;100246.19;4995422;28;20042;-78
2022/03/29 01:12:58;;;;;;;14.15;9.18;;;10.10;72.40;;;9.69;79.54;100250.56;4992960;28;20043;-77
2022/03/29 01:15:35;;;;;;;17.10;9.48;;;10.10;73.10;;;9.67;79.13;100247.94;4992603;28;20050;-77
2022/03/29 01:18:05;;;;;;;12.40;8.68;;;10.10;73.50;;;9.59;81.02;100248.13;4977113;28;20742;-80
2022/03/29 01:20:33;;;;;;;11.30;9.40;;;10.70;74.90;;;9.52;84.72;100243.91;4994862;28;20451;-77
2022/03/29 01:23:02;;;;;;;9.75;8.07;;;10.00;75.90;;;9.53;83.27;100240.38;4990745;28;20050;-79
2022/03/29 01:25:39;;;;;;;12.25;9.50;;;10.00;76.10;;;9.57;83.33;100234.16;4990999;28;20484;-77
2022/03/29 01:28:07;;;;;;;12.80;8.38;;;10.00;75.80;;;9.59;81.61;100229.72;4991130;28;20057;-77
2022/03/29 01:30:35;;;;;;;11.35;8.75;;;9.90;75.50;;;9.52;82.56;100230.78;4991316;28;20061;-78
2022/03/29 01:33:07;;;;;;;12.85;9.32;;;9.90;76.60;;;9.50;80.37;100227.34;5006953;28;20046;-77
2022/03/29 01:35:35;;;;;;;11.57;8.77;;;9.90;76.00;;;9.41;80.61;100220.50;4994375;28;20770;-78
2022/03/29 01:38:02;;;;;;;11.82;8.45;;;9.90;76.10;;;9.39;82.55;100226.69;4977556;28;20048;-80
2022/03/29 01:40:29;;;;;;;11.13;8.90;;;9.90;77.30;;;9.35;84.20;100218.88;4977629;28;20059;-79
2022/03/29 01:43:01;;;;;;;13.10;8.43;;;10.70;78.30;;;9.21;86.02;100216.56;5009961;28;20042;-80
2022/03/29 01:45:31;;;;;;;13.25;8.50;;;9.70;78.20;;;9.15;89.75;100207.94;4974761;28;20119;-77
2022/03/29 01:47:58;;;;;;;11.73;9.43;;;9.70;80.30;;;9.11;87.94;100209.75;4992676;28;20046;-79
2022/03/29 01:50:25;;;;;;;15.85;8.70;;;9.60;79.40;;;9.04;89.85;100208.13;4977327;28;20294;-79
2022/03/29 01:52:52;;;;;;;11.55;9.05;;;9.50;80.50;;;8.92;92.21;100206.63;4999254;28;20054;-77
2022/03/29 01:55:21;;;;;;;14.25;9.45;;;9.50;81.70;;;8.92;88.98;100202.25;4990048;28;20153;-78
2022/03/29 01:57:49;;;;;;;13.10;8.43;;;9.30;81.40;;;8.94;88.06;100208.34;4974578;28;20068;-78
2022/03/29 02:00:38;;;;;;;17.15;9.32;;;9.40;81.00;;;8.89;88.61;100207.53;5006438;28;20137;-78
2022/03/29 02:03:07;;;;;;;11.90;9.07;;;9.30;81.90;;;8.92;85.46;100214.50;4993177;28;20054;-79
2022/03/29 02:05:35;;;;;;;11.90;8.47;;;9.40;81.30;;;8.81;85.95;100212.09;4990310;28;20526;-77
2022/03/29 02:08:03;;;;;;;14.48;9.48;;;9.30;81.90;;;8.79;89.63;100213.88;4974089;28;20401;-77
2022/03/29 02:10:31;;;;;;;16.73;8.80;;;9.30;82.90;;;8.74;90.60;100208.72;4990929;28;20423;-78
2022/03/29 02:12:58;;;;;;;14.15;9.77;;;9.30;83.20;;;8.72;87.38;100215.75;4992427;28;20054;-78
2022/03/29 02:15:26;;;;;;;12.95;9.35;;;10.40;83.80;;;8.76;84.20;100209.56;4975815;28;20046;-79
2022/03/29 02:17:53;;;;;;;13.25;9.38;;;9.20;82.50;;;8.74;87.34;100202.59;4990865;28;20057;-78
2022/03/29 02:20:23;;;;;;;12.13;9.05;;;10.20;84.00;;;8.65;89.23;100195.78;4989684;28;20431;-79
2022/03/29 02:22:50;;;;;;;;;;;9.10;84.20;;;8.66;91.76;100189.63;4991220;28;20042;-77
2022/03/29 02:25:17;;;;;;;11.95;9.95;;;9.10;85.10;;;8.61;91.79;100189.75;4989723;28;20024;-77
2022/03/29 02:27:45;;;;;;;10.60;9.00;;;9.00;85.60;;;8.57;92.59;100187.19;4989515;28;20053;-77
2022/03/29 02:30:15;;;;;;;13.65;9.30;;;9.00;85.50;;;8.52;92.70;100192.53;4989345;28;20046;-78
2022/03/29 02:32:43;;;;;;;12.90;9.57;;;9.00;86.20;;;8.40;93.23;100197.94;5003904;28;20107;-78
2022/03/29 02:35:11;;;;;;;13.02;10.10;;;9.50;86.60;;;8.44;91.40;100194.41;4991752;28;20057;-78
2022/03/29 02:37:38;;;;;;;13.32;9.88;;;8.90;86.10;;;8.45;93.37;100193.50;4974443;28;20074;-79
2022/03/29 02:40:07;;;;;;;18.45;12.93;;;8.90;86.50;;;8.45;93.62;100190.88;5007186;28;20046;-77
2022/03/29 02:42:51;;;;;;;23.83;14.15;;;8.80;87.10;;;8.45;94.07;100189.13;4990970;28;20594;-79
2022/03/29 02:45:25;;;;;;;24.65;13.10;;;8.90;87.20;;;8.45;93.93;100189.13;4989581;28;20129;-77
2022/03/29 02:47:58;;;;;;;24.20;14.15;;;8.80;87.50;;;8.41;95.24;100186.56;4972428;28;20057;-78
2022/03/29 02:50:26;;;;;;;24.00;14.35;;;8.80;87.60;;;8.33;94.92;100173.59;4973701;28;20056;-77
2022/03/29 02:52:56;;;;;;;17.75;11.77;;;10.00;89.10;;;8.41;93.99;100178.69;4988539;28;20047;-77
2022/03/29 02:55:28;;;;;;;17.45;11.63;;;8.80;88.20;;;8.33;97.19;100168.34;4972876;28;20411;-77
2022/03/29 02:57:56;;;;;;;16.75;11.75;;;8.80;88.80;;;8.35;97.14;100163.94;4993728;28;20043;-78
2022/03/29 03:00:23;;;;;;;16.05;11.23;;;8.80;88.80;;;8.37;94.84;100159.56;4980750;28;20070;-79
2022/03/29 03:02:54;;;;;;;13.35;9.85;;;8.70;88.00;;;8.39;96.82;100163.03;4997469;28;20054;-79
2022/03/29 03:05:24;;;;;;;12.77;9.40;;;8.70;89.30;;;8.27;99.25;100158.84;4981286;28;20145;-80
2022/03/29 03:07:52;;;;;;;14.63;9.93;;;9.60;90.00;;;8.24;99.17;100164.13;4961041;28;20058;-81
2022/03/29 03:10:19;;;;;;;14.60;11.13;;;9.50;90.10;;;8.18;96.97;100159.88;4965883;28;20149;-79
2022/03/29 03:12:49;;;;;;;16.65;9.98;;;8.70;89.70;;;8.22;94.92;100160.69;4974683;28;20054;-79
2022/03/29 03:15:22;;;;;;;14.35;10.52;;;9.40;89.90;;;8.19;98.01;100158.97;4989165;28;20045;-78
2022/03/29 03:17:56;;;;;;;16.42;11.05;;;8.80;90.00;;;8.30;95.80;100161.44;4973097;28;20415;-77
2022/03/29 03:20:24;;;;;;;17.70;11.30;;;8.60;89.40;;;8.36;96.46;100163.94;4998972;28;20031;-79
2022/03/29 03:22:54;;;;;;;16.73;11.23;;;8.70;90.30;;;8.41;96.37;100155.09;4993835;28;20118;-77
2022/03/29 03:25:21;;;;;;;14.55;10.57;;;10.00;90.40;;;8.46;96.42;100159.38;4972356;28;20047;-77
2022/03/29 03:27:48;;;;;;;15.98;11.45;;;8.70;90.10;;;8.51;97.34;100160.22;4988946;28;20100;-77
2022/03/29 03:30:17;;;;;;;17.10;12.00;;;8.80;90.40;;;8.52;99.64;100153.19;4988113;28;20419;-77
2022/03/29 03:32:45;;;;;;;18.08;11.70;;;8.80;91.20;;;8.44;100.00;100149.84;4988156;28;20400;-78
2022/03/29 03:35:17;;;;;;;19.50;12.00;;;8.80;90.80;;;8.50;100.00;100149.72;4972868;28;20050;-77
2022/03/29 03:37:44;;;;;;;18.58;11.77;;;8.80;91.20;;;8.46;100.00;100155.91;4989483;28;20347;-80
2022/03/29 03:40:12;;;;;;;17.80;11.75;;;8.80;91.10;;;8.29;100.00;100154.47;4976232;28;20042;-78
2022/03/29 03:42:40;;;;;;;12.77;11.18;;;8.80;91.30;;;8.21;100.00;100143.22;4992327;28;20844;-76
2022/03/29 03:45:09;;;;;;;16.60;10.98;;;8.70;91.30;;;8.12;100.00;100136.41;4975983;28;20511;-78
2022/03/29 03:47:36;;;;;;;14.27;10.32;;;8.60;91.50;;;8.16;100.00;100140.69;4957299;28;20039;-79
2022/03/29 03:50:05;;;;;;;14.95;10.88;;;8.60;91.20;;;8.06;100.00;100137.38;4973204;28;20112;-79
2022/03/29 03:52:32;;;;;;;14.63;10.48;;;8.60;91.50;;;8.05;100.00;100125.16;4969526;28;20408;-77
2022/03/29 03:55:03;;;;;;;13.18;11.35;;;9.10;91.60;;;8.11;100.00;100134.66;4953001;28;20051;-78
2022/03/29 03:57:30;;;;;;;;;;;8.50;91.50;;;8.02;100.00;100130.47;4969798;28;20157;-78
2022/03/29 03:59:57;;;;;;;29.52;20.63;;;8.40;91.60;;;7.88;100.00;100135.06;4974367;28;19922;-77
2022/03/29 04:02:24;;;;;;;25.73;18.83;;;9.60;92.60;;;7.91;100.00;100130.66;4988264;28;20046;-78
2022/03/29 04:04:52;;;;;;;25.55;18.38;;;8.40;92.20;;;7.92;100.00;100129.75;4974606;28;20065;-77
2022/03/29 04:07:19;;;;;;;22.55;16.52;;;8.30;91.90;;;7.86;100.00;100115.91;4978190;28;20499;-77
2022/03/29 04:09:46;;;;;;;26.25;16.77;;;8.40;92.10;;;7.86;100.00;100115.91;4981829;28;20419;-80
2022/03/29 04:12:13;;;;;;;23.38;14.80;;;9.50;92.40;;;7.83;100.00;100119.41;4977196;28;20057;-77
2022/03/29 04:14:40;;;;;;;16.27;12.85;;;8.30;92.30;;;7.84;100.00;100113.28;4978286;28;20043;-80
2022/03/29 04:17:11;;;;;;;20.38;12.60;;;8.30;92.40;;;7.85;100.00;100115.00;4994682;28;20050;-81
2022/03/29 04:19:38;;;;;;;16.70;11.70;;;8.30;92.30;;;7.78;100.00;100106.38;4995360;28;20061;-78
2022/03/29 04:22:05;;;;;;;15.30;12.15;;;9.70;93.00;;;7.78;100.00;100105.53;4995297;28;20038;-79
2022/03/29 04:24:36;;;;;;;77.05;31.15;;;7.60;92.50;;;7.82;100.00;100107.22;4996442;28;20523;-78
2022/03/29 04:27:05;;;;;;;66.53;29.88;;;8.50;92.70;;;7.77;100.00;100109.91;4980068;28;20071;-81
2022/03/29 04:29:31;;;;;;;93.28;39.53;;;8.20;92.70;;;7.70;100.00;100105.66;4996765;28;20057;-80
2022/03/29 04:31:58;;;;;;;91.10;39.40;;;9.20;92.80;;;7.62;100.00;100102.28;4996825;28;20057;-79
2022/03/29 04:34:26;;;;;;;76.30;34.75;;;9.10;93.00;;;7.67;100.00;100105.72;4998242;28;20046;-81
2022/03/29 04:36:53;;;;;;;52.05;25.48;;;8.20;92.70;;;7.66;100.00;100106.63;4996493;28;20492;-78
2022/03/29 04:39:20;;;;;;;34.42;19.40;;;9.40;93.40;;;7.75;100.00;100103.84;4995535;28;20133;-79
2022/03/29 04:41:50;;;;;;;26.17;15.10;;;8.20;92.90;;;7.73;100.00;100107.38;4975132;28;20504;-80
2022/03/29 04:44:35;;;;;;;35.42;23.05;;;9.00;93.40;;;7.62;100.00;100110.16;4971561;28;20494;-78
2022/03/29 04:47:04;;;;;;;30.85;20.98;;;8.10;93.70;;;7.41;100.00;100107.00;4960799;28;20093;-79
2022/03/29 04:49:31;;;;;;;23.40;15.10;;;8.10;93.80;;;7.46;100.00;100099.91;4994959;28;20534;-78
2022/03/29 04:51:59;;;;;;;19.40;13.77;;;8.00;93.90;;;7.45;100.00;100099.97;4994651;28;20050;-79
2022/03/29 04:54:26;;;;;;;19.42;13.23;;;8.80;94.20;;;7.42;100.00;100106.09;4991870;28;20054;-79
2022/03/29 04:56:54;;;;;;;14.85;11.52;;;7.90;94.00;;;7.41;100.00;100104.38;4993862;28;20046;-78
2022/03/29 04:59:21;;;;;;;20.27;12.80;;;9.30;94.40;;;7.50;100.00;100093.78;4997805;28;20560;-79
2022/03/29 05:01:48;;;;;;;17.13;10.63;;;7.90;94.00;;;7.52;100.00;100109.44;4979931;28;20056;-80
2022/03/29 05:04:15;;;;;;;14.98;11.35;;;7.90;93.90;;;7.50;100.00;100098.13;4994255;28;20042;-80
2022/03/29 05:06:42;;;;;;;17.55;11.00;;;8.90;94.30;;;7.43;100.00;100097.34;4960171;28;20065;-80
2022/03/29 05:09:10;;;;;;;15.80;11.20;;;8.70;94.60;;;7.49;100.00;100094.66;4977032;28;20141;-78
2022/03/29 05:11:37;;;;;;;14.85;11.05;;;7.90;94.10;;;7.43;100.00;100099.13;4992813;28;20050;-79
2022/03/29 05:14:04;;;;;;;15.20;10.65;;;8.20;94.60;;;7.30;100.00;100104.53;4976948;28;20129;-79
2022/03/29 05:16:31;;;;;;;24.13;11.65;;;7.80;94.60;;;7.30;100.00;100107.16;4992760;28;20111;-80
2022/03/29 05:18:59;;;;;;;14.25;11.18;;;7.80;94.70;;;7.26;100.00;100102.88;4990293;28;20050;-79
2022/03/29 05:21:27;;;;;;;14.25;10.88;;;7.80;94.80;;;7.33;100.00;100096.63;4976477;28;20714;-80
2022/03/29 05:23:54;;;;;;;15.80;12.27;;;7.70;94.60;;;7.33;100.00;100104.50;4976193;28;20496;-79
2022/03/29 05:26:21;;;;;;;16.75;11.52;;;9.40;95.10;;;7.40;100.00;100097.41;4994119;28;20046;-79
2022/03/29 05:28:48;;;;;;;19.77;11.77;;;7.80;94.60;;;7.42;100.00;100086.94;4977774;28;20145;-79
2022/03/29 05:31:15;;;;;;;17.55;11.68;;;7.80;94.50;;;7.46;100.00;100094.69;4994134;28;20038;-80
2022/03/29 05:33:43;;;;;;;19.75;12.43;;;7.90;94.80;;;7.40;100.00;100096.53;5009603;28;20050;-78
2022/03/29 05:36:10;;;;;;;16.38;12.25;;;8.80;95.40;;;7.31;100.00;100093.19;4977840;28;20058;-79
2022/03/29 05:38:37;;;;;;;15.35;12.00;;;7.80;95.00;;;7.14;100.00;100095.19;4993034;28;20117;-78
2022/03/29 05:41:04;;;;;;;17.35;12.40;;;9.20;95.70;;;7.16;100.00;100098.63;4975433;28;20082;-78
2022/03/29 05:43:31;;;;;;;15.45;11.52;;;7.70;95.50;;;7.11;100.00;100096.09;4976879;28;20140;-78
2022/03/29 05:48:53;;;;;;;24.05;11.38;;;7.70;95.80;;;7.19;100.00;100098.59;4994421;28;20051;-78
2022/03/29 05:51:24;;;;;;;23.48;13.23;;;7.60;95.50;;;7.16;100.00;100089.03;4977445;28;20554;-78
2022/03/29 05:53:53;;;;;;;17.17;12.25;;;8.30;95.80;;;7.19;100.00;100102.09;4994068;28;20057;-78
2022/03/29 05:56:21;;;;;;;18.02;11.43;;;7.70;95.80;;;7.26;100.00;100102.88;4994942;28;20042;-79
2022/03/29 05:58:51;;;;;;;18.58;11.77;;;8.00;96.00;;;7.31;100.00;100097.53;4992591;28;20074;-78
2022/03/29 06:01:19;;;;;;;;;;;7.70;95.80;;;7.42;100.00;100093.00;4961483;28;20046;-78
2022/03/29 06:03:46;;;;;;;22.63;12.75;;;8.00;96.00;;;7.38;100.00;100099.19;4974984;28;19963;-78
2022/03/29 06:06:13;;;;;;;21.10;12.27;;;7.80;96.10;;;7.38;100.00;100096.56;4990789;28;20617;-78
2022/03/29 06:08:42;;;;;;;23.92;11.68;;;8.90;96.40;;;7.43;100.00;100096.50;4977062;28;20052;-78
2022/03/29 06:11:09;;;;;;;17.10;11.80;;;7.80;96.20;;;7.45;100.00;100100.81;4993794;28;20056;-80
2022/03/29 06:13:37;;;;;;;17.13;11.88;;;7.90;96.50;;;7.51;100.00;100095.50;4993172;28;20486;-79
2022/03/29 06:16:04;;;;;;;19.58;12.35;;;8.70;96.70;;;7.66;100.00;100104.00;4977066;28;20050;-76
2022/03/29 06:18:33;;;;;;;19.17;12.13;;;7.90;96.30;;;7.69;100.00;100105.69;4995830;28;20098;-78
2022/03/29 06:21:00;;;;;;;19.65;11.90;;;9.50;96.50;;;7.72;100.00;100101.28;4993478;28;20068;-77
2022/03/29 06:23:27;;;;;;;17.70;11.82;;;8.00;96.50;;;7.83;100.00;100110.72;4974443;28;20042;-78
2022/03/29 06:25:55;;;;;;;19.17;11.88;;;9.80;96.90;;;7.88;100.00;100112.38;4990300;28;20054;-80
2022/03/29 06:28:22;;;;;;;20.67;12.63;;;8.70;96.50;;;8.01;100.00;100101.66;4990091;28;20045;-78
2022/03/29 06:30:50;;;;;;;24.85;12.63;;;8.30;96.40;;;8.14;100.00;100104.94;4996376;28;20061;-79
2022/03/29 06:33:19;;;;;;;21.25;13.27;;;8.40;96.10;;;8.18;100.00;100106.59;4994649;28;20689;-77
2022/03/29 06:35:46;;;;;;;21.77;14.57;;;10.30;96.70;;;8.19;100.00;100113.56;5008446;28;20050;-79
2022/03/29 06:38:13;;;;;;;22.95;14.95;;;10.10;96.70;;;8.35;100.00;100115.00;4989354;28;20391;-78
2022/03/29 06:40:40;;;;;;;27.63;15.25;;;8.60;96.20;;;8.42;100.00;100113.13;4992198;28;20507;-77
2022/03/29 06:43:07;;;;;;;27.45;14.85;;;8.70;96.20;;;8.59;100.00;100117.22;4992097;28;20149;-78
2022/03/29 06:45:34;;;;;;;18.13;12.85;;;8.80;96.00;;;8.68;100.00;100117.06;4992666;28;20078;-77
2022/03/29 06:48:02;;;;;;;24.48;15.65;;;8.90;96.20;;;8.74;100.00;100116.91;4976404;28;20046;-77
2022/03/29 06:50:29;;;;;;;25.02;14.32;;;8.90;96.00;;;8.85;100.00;100115.84;4993678;28;20188;-78
2022/03/29 06:52:57;;;;;;;20.70;13.52;;;9.00;96.10;;;8.91;100.00;100108.69;4998433;28;20044;-80
2022/03/29 06:55:27;;;;;;;22.33;13.93;;;9.10;96.10;;;9.01;100.00;100108.47;4975158;28;20042;-82
2022/03/29 06:57:55;;;;;;;24.70;13.85;;;10.00;96.10;;;9.04;100.00;100098.78;4980008;28;20057;-81
2022/03/29 07:00:22;;;;;;;19.98;13.10;;;9.20;96.00;;;9.14;100.00;100095.97;4997657;28;20070;-82
2022/03/29 07:02:49;;;;;;;21.98;13.38;;;9.30;96.30;;;9.19;100.00;100104.59;4977796;28;20137;-79
2022/03/29 07:05:19;;;;;;;21.45;13.05;;;9.40;96.60;;;9.21;100.00;100108.06;4977931;28;20663;-79
2022/03/29 07:07:47;;;;;;;19.60;14.27;;;9.50;96.70;;;9.24;100.00;100110.59;4994421;28;20097;-78
2022/03/29 07:13:03;;;;;;;17.85;14.10;;;9.50;96.80;;;9.50;100.00;100112.63;4990636;28;20519;-79
2022/03/29 07:15:32;;;;;;;;;;;11.00;97.20;;;9.60;100.00;100112.41;4995227;28;20050;-80
2022/03/29 07:18:02;;;;;;;27.73;16.80;;;9.70;96.40;;;9.71;100.00;100109.50;4993869;28;19963;-81
2022/03/29 07:20:29;;;;;;;23.40;15.65;;;9.80;96.20;;;9.89;100.00;100105.56;5000625;28;20113;-77
2022/03/29 07:22:56;;;;;;;26.23;16.05;;;8.90;95.60;;;10.01;100.00;100107.91;4980378;28;20053;-80
2022/03/29 07:25:27;;;;;;;21.40;14.88;;;10.00;95.60;;;10.08;100.00;100104.19;4992696;28;20125;-78
2022/03/29 07:27:54;;;;;;;24.45;16.30;;;10.20;95.90;;;10.16;100.00;100106.63;4992679;28;20070;-82
2022/03/29 07:30:22;;;;;;;24.45;17.63;;;10.30;96.00;;;10.24;100.00;100106.41;4993655;28;20053;-79
2022/03/29 07:32:53;;;;;;;23.08;16.05;;;11.90;96.30;;;10.34;100.00;100096.50;4978244;28;20058;-78
2022/03/29 07:35:23;;;;;;;27.25;17.40;;;10.50;95.50;;;10.44;100.00;100100.66;4979492;28;20066;-82
2022/03/29 07:37:51;;;;;;;22.45;16.27;;;10.60;95.80;;;10.53;100.00;100107.41;4971796;28;20093;-80
2022/03/29 07:40:25;;;;;;;32.55;17.85;;;12.10;96.20;;;10.59;100.00;100106.38;4994799;28;20046;-81
2022/03/29 07:42:53;;;;;;;32.38;20.95;;;10.80;95.80;;;10.72;100.00;100096.38;4992535;28;20046;-81
2022/03/29 07:45:21;;;;;;;39.45;26.63;;;10.90;95.50;;;10.79;100.00;100105.81;4976480;28;20488;-80
2022/03/29 07:47:51;;;;;;;35.78;25.05;;;12.00;94.90;;;10.92;100.00;100111.56;4960346;28;20050;-80
2022/03/29 07:50:39;;;;;;;33.97;22.27;;;11.00;94.40;;;11.03;100.00;100109.50;4978915;28;20045;-81
2022/03/29 07:53:07;;;;;;;29.08;20.67;;;11.10;94.10;;;11.13;100.00;100111.84;4959802;28;20045;-79
2022/03/29 07:55:39;;;;;;;35.40;21.85;;;12.50;94.40;;;11.27;100.00;100106.16;4959349;28;20157;-80
2022/03/29 07:58:10;;;;;;;30.05;20.17;;;11.30;94.00;;;11.24;100.00;100104.47;4978061;28;20104;-79
2022/03/29 08:00:37;;;;;;;32.92;20.75;;;11.40;94.10;;;11.34;100.00;100105.03;4997165;28;20034;-80
2022/03/29 08:03:09;;;;;;;32.47;20.67;;;11.50;93.90;;;11.50;100.00;100097.53;5009587;28;20047;-78
2022/03/29 08:05:39;;;;;;;30.48;21.08;;;11.50;94.10;;;11.61;100.00;100094.53;4992753;28;20074;-80
2022/03/29 08:08:07;;;;;;;37.33;22.25;;;11.60;93.80;;;11.71;100.00;100089.81;4975859;28;20543;-78
2022/03/29 08:10:34;;;;;;;36.50;22.10;;;11.80;93.70;;;11.85;99.09;100091.97;4974808;28;20503;-78
2022/03/29 08:13:04;;;;;;;34.55;24.00;;;13.00;93.90;;;11.95;98.13;100087.28;4991555;28;20057;-79
2022/03/29 08:15:31;;;;;;;32.95;23.15;;;12.00;93.50;;;11.92;97.70;100086.44;4977148;28;20085;-78
2022/03/29 08:18:06;;;;;;;35.72;25.38;;;12.00;93.30;;;11.98;96.76;100090.66;4989196;28;20145;-79
2022/03/29 08:20:34;;;;;;;31.55;21.95;;;12.10;93.20;;;12.08;95.02;100083.31;4956341;28;20042;-79
2022/03/29 08:23:05;;;;;;;38.28;25.83;;;12.10;92.90;;;12.22;97.76;100093.41;4986731;28;20054;-78
2022/03/29 08:25:42;;;;;;;36.03;23.85;;;12.20;93.20;;;12.29;96.97;100086.13;4972450;28;20077;-79
2022/03/29 08:28:27;;;;;;;37.53;25.95;;;12.30;93.10;;;12.38;95.53;100098.13;4988984;28;20096;-79
2022/03/29 08:30:54;;;;;;;36.72;24.60;;;12.50;93.00;;;12.36;94.44;100086.78;5013859;28;20062;-77
2022/03/29 08:33:21;;;;;;;36.10;25.92;;;12.80;92.90;;;12.41;93.95;100093.63;4976598;28;20050;-78
2022/03/29 08:35:49;;;;;;;34.60;23.88;;;12.50;92.60;;;12.47;92.35;100082.81;4990980;28;20054;-79
2022/03/29 08:38:34;;;;;;;38.80;25.05;;;12.60;92.60;;;12.61;91.46;100087.59;4990996;28;20042;-79
2022/03/29 08:41:01;;;;;;;42.47;26.60;;;13.00;92.60;;;12.69;91.75;100089.09;4989958;28;20056;-78
2022/03/29 08:43:46;;;;;;;37.45;26.33;;;12.80;92.40;;;12.80;90.97;100094.84;4968385;28;20041;-82
2022/03/29 08:46:13;;;;;;;40.13;25.05;;;12.90;92.30;;;12.87;90.45;100093.69;4962017;28;20050;-81
2022/03/29 08:48:43;;;;;;;38.75;25.77;;;13.00;92.30;;;12.95;89.03;100093.38;4990186;28;20042;-78
2022/03/29 08:51:11;;;;;;;;;;;13.10;92.10;;;13.05;87.57;100092.13;4974804;28;20084;-79
2022/03/29 08:53:59;;;;;;;40.47;27.00;;;13.10;91.90;;;13.03;87.87;100099.25;4983444;28;19932;-79
2022/03/29 08:56:26;;;;;;;41.00;26.10;;;13.20;91.90;;;13.02;86.96;100092.22;4978597;28;20069;-81
2022/03/29 08:58:53;;;;;;;45.70;27.27;;;13.30;91.70;;;13.27;86.85;100090.41;4969332;28;20751;-80
2022/03/29 09:01:24;;;;;;;42.85;27.23;;;13.70;91.90;;;13.33;84.52;100091.00;4977244;28;20037;-80
2022/03/29 09:04:12;;;;;;;40.60;28.70;;;14.00;91.70;;;13.46;84.03;100094.06;5001620;28;20043;-81
2022/03/29 09:07:01;;;;;;;38.25;27.75;;;13.50;91.50;;;13.58;82.82;100089.19;4990706;28;20054;-83
2022/03/29 09:09:34;;;;;;;39.97;26.70;;;14.50;91.50;;;13.66;81.60;100088.88;4986804;28;20058;-78
2022/03/29 09:12:20;;;;;;;37.35;26.10;;;13.70;91.20;;;13.75;81.22;100085.84;4979247;28;20114;-78
2022/03/29 09:15:00;;;;;;;43.63;27.98;;;13.70;91.10;;;13.87;77.52;100077.41;4963812;28;20058;-79
2022/03/29 09:17:35;;;;;;;;;;;13.90;90.80;;;14.00;78.52;100077.72;5005113;28;20054;-80
2022/03/29 09:20:10;;;;;;;40.63;28.70;;;14.00;90.90;;;14.02;75.20;100064.47;4980803;28;19936;-79
2022/03/29 09:22:49;;;;;;;40.03;29.88;;;14.00;90.30;;;13.99;73.92;100076.03;4995203;28;20050;-78
2022/03/29 09:25:47;;;;;;;42.55;29.02;;;14.10;90.00;;;14.12;74.05;100055.16;4977885;28;20069;-78
2022/03/29 09:28:21;;;;;;;39.92;29.13;;;14.10;90.00;;;14.33;73.30;100049.88;4994859;28;20152;-78
2022/03/29 09:30:52;;;;;;;46.67;28.02;;;14.30;90.10;;;14.45;72.32;100045.81;4995283;28;20755;-78
2022/03/29 09:33:32;;;;;;;38.80;28.27;;;14.30;89.90;;;14.52;72.86;100046.38;4998840;28;20046;-78
2022/03/29 09:36:07;;;;;;;47.88;29.33;;;14.50;89.90;;;14.72;70.82;100038.41;4981748;28;20039;-77
2022/03/29 09:38:41;;;;;;;38.70;26.65;;;14.60;89.50;;;14.94;68.61;100031.25;4979209;28;20046;-77
2022/03/29 09:41:26;;;;;;;35.25;25.55;;;14.80;89.10;;;14.88;67.08;100030.63;4994445;28;20426;-76
2022/03/29 09:44:32;;;;;;;36.38;24.13;;;14.90;88.00;;;14.89;67.05;100023.50;5011875;28;20034;-77
2022/03/29 09:47:04;;;;;;;38.50;26.98;;;15.00;87.50;;;14.98;68.58;100020.44;4995744;28;20431;-75
2022/03/29 09:50:06;;;;;;;37.40;25.70;;;15.00;87.70;;;15.07;68.11;100023.59;4978232;28;20045;-76
2022/03/29 09:52:44;;;;;;;33.17;24.90;;;15.10;87.60;;;15.24;68.59;100012.16;4992656;28;20530;-76
2022/03/29 09:55:28;;;;;;;37.90;26.60;;;15.20;88.00;;;15.20;65.90;100003.47;4991754;28;20516;-75
2022/03/29 09:57:59;;;;;;;38.83;25.45;;;15.50;87.00;;;15.26;64.18;100000.53;4991727;28;20443;-75
2022/03/29 10:00:29;;;;;;;35.40;25.27;;;15.40;86.10;;;15.38;62.37;100001.72;4990187;28;20129;-75
2022/03/29 10:02:59;;;;;;;32.40;23.73;;;16.60;86.20;;;15.47;60.68;99996.91;4991316;28;20043;-75
2022/03/29 10:05:28;;;;;;;42.95;25.13;;;15.50;84.90;;;15.63;58.76;99994.31;4989252;28;20470;-75
2022/03/29 10:11:02;;;;;;;37.78;26.15;;;15.70;83.80;;;15.94;59.59;99983.03;4992547;28;20034;-77
2022/03/29 10:13:30;;;;;;;36.35;26.13;;;16.30;84.30;;;16.04;58.94;99977.22;4992670;28;20050;-75
2022/03/29 10:16:00;;;;;;;38.17;25.20;;;16.00;83.70;;;16.15;57.98;99969.53;4991386;28;20684;-74
2022/03/29 10:18:28;;;;;;;39.05;24.75;;;16.10;83.10;;;16.38;57.48;99970.94;4993960;28;20418;-77
2022/03/29 10:20:56;;;;;;;35.28;24.80;;;16.20;83.00;;;16.44;56.62;99962.63;4978516;28;20054;-78
2022/03/29 10:23:28;;;;;;;36.63;26.88;;;16.40;82.30;;;16.36;56.54;99956.03;4994254;28;20046;-77
2022/03/29 10:25:58;;;;;;;42.08;26.58;;;16.40;81.80;;;16.45;54.60;99955.53;4978816;28;20046;-78
2022/03/29 10:28:29;;;;;;;42.72;26.50;;;16.50;80.60;;;16.53;54.93;99947.97;4993052;28;20388;-76
2022/03/29 10:30:58;;;;;;;37.88;26.83;;;16.50;80.50;;;16.60;54.82;99953.81;4991681;28;20419;-78